Time;durP1;ratioP1;P1;durP2;ratioP2;P2;SDS_P1;SDS_P2;PMS_P1;PMS_P2;Temp;Humidity;BMP_temperature;BMP_pressure;BME280_temperature;BME280_humidity;BME280_pressure;Samples;Min_cycle;Max_cycle;Signal;HPM_P1;HPM_P2
2023/02/09 00:03:45;;;;;;;34.15;14.15;;;-3.80;99.90;;;;;;20973887;28;20063;-83
2023/02/09 00:13:46;;;;;;;32.85;13.98;;;-4.00;99.90;;;;;;21008272;28;20020;-82
2023/02/09 00:23:46;;;;;;;33.45;14.25;;;-3.90;99.90;;;;;;20859771;22;20045;-80
2023/02/09 00:33:47;;;;;;;46.42;17.17;;;-3.90;99.90;;;;;;20764477;28;20041;-78
2023/02/09 00:43:48;;;;;;;35.17;15.70;;;-3.90;99.90;;;;;;20780708;28;20034;-79
2023/02/09 00:53:49;;;;;;;36.85;15.18;;;-3.80;99.90;;;;;;20775576;28;20044;-77
2023/02/09 01:03:49;;;;;;;38.53;15.27;;;-3.90;99.90;;;;;;20775862;28;20057;-78
2023/02/09 01:13:50;;;;;;;30.63;13.95;;;-3.90;99.90;;;;;;20774518;28;20025;-77
2023/02/09 01:23:51;;;;;;;36.85;14.57;;;-4.00;99.90;;;;;;20782398;28;20033;-79
2023/02/09 01:33:54;;;;;;;43.10;14.57;;;-4.10;99.90;;;;;;20783494;28;20030;-79
2023/02/09 01:43:59;;;;;;;51.13;15.25;;;-4.10;99.90;;;;;;20787932;28;20022;-79
2023/02/09 01:54:11;;;;;;;41.30;16.85;;;-4.20;99.90;;;;;;20785642;28;20036;-79
2023/02/09 02:04:12;;;;;;;33.30;13.75;;;-4.30;99.90;;;;;;20783493;28;20469;-78
2023/02/09 02:14:34;;;;;;;41.33;16.85;;;-4.30;99.90;;;;;;20782444;28;20057;-78
2023/02/09 02:24:59;;;;;;;41.47;14.48;;;-4.30;99.90;;;;;;20779597;28;20044;-80
2023/02/09 02:35:23;;;;;;;46.05;16.50;;;-4.40;99.90;;;;;;20771225;28;20095;-80
2023/02/09 02:45:46;;;;;;;32.65;14.23;;;-4.50;99.90;;;;;;20779540;28;20057;-79
2023/02/09 02:55:48;;;;;;;44.40;16.35;;;-4.50;99.90;;;;;;20774601;28;20030;-79
2023/02/09 03:05:50;;;;;;;41.92;15.82;;;-4.50;99.90;;;;;;20778587;28;20026;-80
2023/02/09 03:27:21;;;;;;;50.75;19.05;;;-4.70;99.90;;;;;;20773248;28;20030;-79
2023/02/09 03:37:22;;;;;;;40.00;16.55;;;-4.80;99.90;;;;;;20771164;28;20033;-80
2023/02/09 03:47:23;;;;;;;40.75;17.17;;;-4.80;99.90;;;;;;20771390;28;20064;-77
2023/02/09 03:57:24;;;;;;;42.35;16.15;;;-4.70;99.90;;;;;;20771524;28;20479;-79
2023/02/09 04:07:25;;;;;;;49.45;18.63;;;-4.70;99.90;;;;;;20771357;28;20416;-80
2023/02/09 04:17:26;;;;;;;44.13;18.77;;;-4.70;99.90;;;;;;20765331;28;20412;-80
2023/02/09 04:27:27;;;;;;;47.95;19.00;;;-4.80;99.90;;;;;;20762100;28;20030;-77
2023/02/09 04:37:28;;;;;;;48.78;19.38;;;-4.80;99.90;;;;;;20765900;28;20121;-79
2023/02/09 04:47:28;;;;;;;45.17;18.38;;;-4.90;99.90;;;;;;20766729;28;20060;-79
2023/02/09 05:07:49;;;;;;;56.93;19.77;;;-5.10;99.90;;;;;;20757074;28;20388;-79
2023/02/09 05:17:49;;;;;;;48.00;20.13;;;-5.20;99.90;;;;;;20758270;28;20117;-79
2023/02/09 05:27:50;;;;;;;52.80;19.20;;;-5.30;99.90;;;;;;20765975;28;20084;-81
2023/02/09 05:37:51;;;;;;;52.38;18.38;;;-5.30;99.90;;;;;;20762559;28;20030;-78
2023/02/09 05:47:52;;;;;;;52.15;19.25;;;-5.30;99.90;;;;;;20766183;28;20054;-78
2023/02/09 05:57:53;;;;;;;44.47;18.45;;;-5.40;99.90;;;;;;20759761;28;20408;-79
2023/02/09 06:07:54;;;;;;;44.70;18.67;;;-5.40;99.90;;;;;;20774260;28;20040;-79
2023/02/09 06:17:54;;;;;;;40.17;17.67;;;-5.50;99.90;;;;;;20822532;22;20038;-81
2023/02/09 06:27:55;;;;;;;49.72;19.50;;;-5.60;99.90;;;;;;20842387;28;20064;-80
2023/02/09 06:37:57;;;;;;;56.05;20.83;;;-5.60;99.90;;;;;;20777673;28;20033;-80
2023/02/09 06:47:57;;;;;;;58.60;20.05;;;-5.80;99.90;;;;;;20780117;28;20073;-81
2023/02/09 06:57:58;;;;;;;55.55;21.00;;;-5.70;99.90;;;;;;20829398;28;20079;-79
2023/02/09 07:07:59;;;;;;;56.47;20.98;;;-5.70;99.90;;;;;;20783028;28;20084;-81
2023/02/09 07:18:00;;;;;;;54.80;19.75;;;-5.60;99.90;;;;;;20884903;28;20531;-80
2023/02/09 07:28:01;;;;;;;60.67;22.40;;;-5.20;99.90;;;;;;20878479;28;20535;-82
2023/02/09 07:38:01;;;;;;;54.15;22.38;;;-4.80;99.90;;;;;;20834765;28;20033;-81
2023/02/09 07:48:02;;;;;;;56.58;23.20;;;-4.20;99.90;;;;;;20831582;28;20079;-80
2023/02/09 07:58:03;;;;;;;55.72;21.67;;;-3.40;99.90;;;;;;20837251;28;20029;-80
2023/02/09 08:08:04;;;;;;;68.72;22.00;;;-2.80;99.90;;;;;;20836364;28;20037;-79
2023/02/09 08:18:15;;;;;;;59.10;23.20;;;-2.50;99.90;;;;;;20836462;28;20487;-80
2023/02/09 08:28:18;;;;;;;66.57;23.92;;;-2.30;99.90;;;;;;20836407;28;20029;-80
2023/02/09 08:38:19;;;;;;;61.08;21.00;;;-1.70;99.90;;;;;;20831433;28;20112;-80
2023/02/09 08:48:20;;;;;;;59.17;22.85;;;-1.20;99.90;;;;;;20832217;28;20056;-82
2023/02/09 08:58:21;;;;;;;49.95;22.05;;;-0.50;99.90;;;;;;20831887;28;20025;-81
2023/02/09 09:08:22;;;;;;;58.45;21.73;;;0.10;99.90;;;;;;20794844;28;20021;-80
2023/02/09 09:18:24;;;;;;;53.80;22.88;;;0.90;99.90;;;;;;20821562;28;20029;-80
2023/02/09 09:28:25;;;;;;;65.18;25.55;;;1.20;99.90;;;;;;20838625;28;20029;-78
2023/02/09 09:38:26;;;;;;;54.40;22.05;;;1.70;99.90;;;;;;20842250;28;20029;-80
2023/02/09 09:48:39;;;;;;;60.10;24.48;;;2.40;99.90;;;;;;20835135;28;20036;-79
2023/02/09 09:58:43;;;;;;;57.42;24.25;;;2.80;99.90;;;;;;20795304;28;20551;-79
2023/02/09 10:08:53;;;;;;;55.20;23.88;;;3.30;99.90;;;;;;20839463;28;20343;-79
2023/02/09 10:18:59;;;;;;;57.58;23.67;;;4.00;99.90;;;;;;20802011;28;20042;-79
2023/02/09 10:29:06;;;;;;;58.40;23.67;;;4.70;99.90;;;;;;20837430;28;20080;-80
2023/02/09 10:39:10;;;;;;;57.45;25.58;;;4.30;99.90;;;;;;20821298;28;20488;-80
2023/02/09 10:49:29;;;;;;;54.70;26.50;;;6.30;99.90;;;;;;20895672;28;20060;-81
2023/02/09 10:59:33;;;;;;;57.63;25.88;;;6.50;99.90;;;;;;20872604;28;20384;-81
2023/02/09 11:09:38;;;;;;;54.50;23.65;;;7.10;99.90;;;;;;20830565;28;20034;-80
2023/02/09 11:19:57;;;;;;;50.75;24.80;;;7.30;99.90;;;;;;20836571;28;20037;-80
2023/02/09 11:30:33;;;;;;;59.22;24.80;;;6.60;99.90;;;;;;20818103;28;20033;-83
2023/02/09 11:40:49;;;;;;;56.50;25.52;;;6.50;99.90;;;;;;20832680;28;20442;-81
2023/02/09 11:50:50;;;;;;;54.95;25.67;;;8.70;99.90;;;;;;20823223;28;20444;-80
2023/02/09 12:01:01;;;;;;;58.57;26.03;;;8.00;99.90;;;;;;20831956;28;20046;-85
2023/02/09 12:11:30;;;;;;;53.03;25.77;;;8.50;99.90;;;;;;20812738;28;20503;-81
2023/02/09 12:21:37;;;;;;;72.63;33.17;;;8.50;99.90;;;;;;20843955;22;20065;-80
2023/02/09 12:32:04;;;;;;;52.13;24.58;;;9.60;99.90;;;;;;20904624;22;20041;-80
2023/02/09 12:42:05;;;;;;;49.65;23.50;;;9.10;99.90;;;;;;20920978;28;20047;-80
2023/02/09 12:52:16;;;;;;;52.85;23.48;;;8.50;99.90;;;;;;20916974;28;20049;-80
2023/02/09 13:02:25;;;;;;;38.83;19.48;;;7.90;99.90;;;;;;20926524;28;20025;-79
2023/02/09 13:12:36;;;;;;;45.70;20.90;;;8.70;99.90;;;;;;20917976;28;20040;-79
2023/02/09 13:22:55;;;;;;;36.30;16.63;;;8.80;99.90;;;;;;20918301;28;20025;-79
2023/02/09 13:33:16;;;;;;;26.15;10.52;;;8.60;99.90;;;;;;20900683;28;20029;-79
2023/02/09 13:43:32;;;;;;;19.15;8.50;;;8.30;99.90;;;;;;20891669;28;20037;-79
2023/02/09 13:53:32;;;;;;;24.17;10.48;;;7.80;99.90;;;;;;20906917;28;20036;-78
2023/02/09 14:04:14;;;;;;;24.27;10.63;;;7.50;99.90;;;;;;20916776;28;20088;-80
2023/02/09 14:14:21;;;;;;;31.50;12.23;;;7.60;99.90;;;;;;20872710;28;20032;-78
2023/02/09 14:24:24;;;;;;;27.98;11.05;;;7.30;99.90;;;;;;20924713;28;20052;-80
2023/02/09 14:34:39;;;;;;;27.02;11.05;;;7.40;99.90;;;;;;20923372;28;20037;-80
2023/02/09 14:45:17;;;;;;;24.13;11.63;;;7.90;99.90;;;;;;20922012;28;20107;-80
2023/02/09 14:55:23;;;;;;;24.27;10.93;;;7.70;99.90;;;;;;20922239;28;20053;-80
2023/02/09 15:05:24;;;;;;;19.63;10.30;;;7.70;99.90;;;;;;20928000;28;20095;-80
2023/02/09 15:15:25;;;;;;;22.10;11.43;;;7.30;99.90;;;;;;20931963;28;20106;-79
2023/02/09 15:25:27;;;;;;;25.77;10.40;;;7.60;99.90;;;;;;20925361;28;20060;-80
2023/02/09 15:35:29;;;;;;;27.55;11.48;;;7.60;99.90;;;;;;20920458;28;20033;-80
2023/02/09 15:55:49;;;;;;;27.20;11.90;;;7.10;99.90;;;;;;20898384;28;20029;-80
2023/02/09 16:05:56;;;;;;;30.87;14.00;;;7.00;99.90;;;;;;20920488;28;20033;-80
2023/02/09 16:15:57;;;;;;;32.50;14.15;;;6.70;99.90;;;;;;20917905;28;20025;-80
2023/02/09 16:25:58;;;;;;;24.80;11.73;;;6.00;99.90;;;;;;20922104;28;20060;-81
2023/02/09 16:36:01;;;;;;;34.43;19.60;;;5.60;99.90;;;;;;20920098;28;20033;-80
2023/02/09 16:46:03;;;;;;;24.67;12.38;;;4.60;99.90;;;;;;20913110;28;20033;-81
2023/02/09 16:56:08;;;;;;;52.97;22.95;;;3.80;99.90;;;;;;20915477;28;20600;-81
2023/02/09 17:06:16;;;;;;;35.17;16.73;;;2.60;99.90;;;;;;20912994;28;20385;-81
2023/02/09 17:16:18;;;;;;;51.08;22.02;;;2.10;99.90;;;;;;20902224;28;20037;-80
2023/02/09 17:26:19;;;;;;;42.88;19.42;;;1.90;99.90;;;;;;20881981;28;20063;-79
2023/02/09 17:36:22;;;;;;;33.67;15.65;;;1.60;99.90;;;;;;20892416;28;20033;-81
2023/02/09 17:46:23;;;;;;;32.67;14.13;;;1.20;99.90;;;;;;20910071;28;20040;-81
2023/02/09 17:56:24;;;;;;;44.53;17.65;;;0.70;99.90;;;;;;20922076;28;20060;-81
2023/02/09 18:06:38;;;;;;;36.65;14.98;;;0.40;99.90;;;;;;20931689;28;20179;-80
2023/02/09 18:16:41;;;;;;;29.90;12.95;;;0.40;99.90;;;;;;20940371;22;20033;-79
2023/02/09 18:26:42;;;;;;;33.67;13.80;;;-0.20;99.90;;;;;;20852071;28;20040;-79
2023/02/09 18:36:42;;;;;;;77.75;32.55;;;-0.60;99.90;;;;;;20840355;28;20037;-80
2023/02/09 18:46:43;;;;;;;89.03;45.15;;;-0.60;99.90;;;;;;20800630;28;20586;-80
2023/02/09 18:56:44;;;;;;;85.15;33.58;;;-0.60;99.90;;;;;;20822277;28;20038;-78
2023/02/09 19:06:45;;;;;;;50.67;20.90;;;-0.90;99.90;;;;;;20855276;28;20082;-80
2023/02/09 19:16:46;;;;;;;47.38;17.80;;;-0.90;99.90;;;;;;20812089;28;20420;-79
2023/02/09 19:26:46;;;;;;;34.30;15.02;;;-0.80;99.90;;;;;;20760165;28;20068;-80
2023/02/09 19:36:48;;;;;;;118.63;42.33;;;-0.50;99.90;;;;;;20834125;28;20480;-82
2023/02/09 19:46:49;;;;;;;27.92;11.55;;;-0.60;99.90;;;;;;20830002;28;20392;-79
2023/02/09 19:56:50;;;;;;;29.42;13.10;;;-1.00;99.90;;;;;;20840848;28;20038;-78
2023/02/09 20:06:51;;;;;;;29.85;13.15;;;-0.80;99.90;;;;;;20828225;28;20054;-81
2023/02/09 20:16:53;;;;;;;32.10;13.20;;;-1.10;99.90;;;;;;20806583;28;20094;-81
2023/02/09 20:26:53;;;;;;;28.20;12.80;;;-1.40;99.90;;;;;;20839723;28;20033;-81
2023/02/09 20:36:56;;;;;;;28.65;13.02;;;-1.50;99.90;;;;;;20843446;28;20072;-80
2023/02/09 20:46:57;;;;;;;29.80;13.68;;;-1.40;99.90;;;;;;20808601;28;20037;-80
2023/02/09 20:56:58;;;;;;;29.35;12.13;;;-1.60;99.90;;;;;;20813648;28;20071;-79
2023/02/09 21:06:59;;;;;;;38.70;13.38;;;-1.70;99.90;;;;;;20808663;28;20132;-80
2023/02/09 21:17:01;;;;;;;32.50;12.70;;;-1.80;99.90;;;;;;20828636;28;20462;-81
2023/02/09 21:27:02;;;;;;;37.50;15.20;;;-1.70;99.90;;;;;;20831202;28;20057;-80
2023/02/09 21:37:06;;;;;;;28.98;12.52;;;-1.80;99.90;;;;;;20869411;28;20044;-79
2023/02/09 21:47:07;;;;;;;25.35;10.10;;;-2.00;99.90;;;;;;20875116;28;20033;-81
2023/02/09 21:57:08;;;;;;;27.58;12.98;;;-1.90;99.90;;;;;;20869838;28;20053;-79
2023/02/09 22:07:09;;;;;;;33.72;12.50;;;-2.00;99.90;;;;;;20842680;28;20472;-80
2023/02/09 22:17:10;;;;;;;32.35;13.68;;;-2.40;99.90;;;;;;20862478;28;20121;-79
2023/02/09 22:27:11;;;;;;;35.05;13.73;;;-2.20;99.90;;;;;;20842121;28;20041;-79
2023/02/09 22:37:11;;;;;;;27.70;11.57;;;-2.60;99.90;;;;;;20835492;28;20126;-81
2023/02/09 22:47:12;;;;;;;33.17;12.15;;;-2.40;99.90;;;;;;20821101;28;20030;-80
2023/02/09 22:57:13;;;;;;;32.28;13.32;;;-2.50;99.90;;;;;;20840616;28;20391;-80
2023/02/09 23:07:14;;;;;;;42.90;13.38;;;-2.60;99.90;;;;;;20825974;28;20109;-80
2023/02/09 23:17:15;;;;;;;33.97;14.35;;;-2.80;99.90;;;;;;20815267;28;20061;-80
2023/02/09 23:27:17;;;;;;;30.83;11.73;;;-2.80;99.90;;;;;;20835442;28;20037;-80
2023/02/09 23:37:17;;;;;;;35.17;14.18;;;-2.50;99.90;;;;;;20805437;28;20030;-80
2023/02/09 23:47:18;;;;;;;41.22;14.85;;;-3.00;99.90;;;;;;20842009;28;20491;-79
2023/02/09 23:57:22;;;;;;;36.30;15.15;;;-3.00;99.90;;;;;;20821962;28;20033;-80
